sensor_id;sensor_type;location;lat;lon;timestamp;pressure;altitude;pressure_sealevel;temperature;humidity
83200;BME280;73092;49.132;8.920;2024-03-22T00:01:44;100120.56;;;5.00;100.00
83200;BME280;73092;49.132;8.920;2024-03-22T00:04:10;100109.25;;;4.98;100.00
83200;BME280;73092;49.132;8.920;2024-03-22T00:06:35;100110.97;;;4.90;100.00
83200;BME280;73092;49.132;8.920;2024-03-22T00:09:01;100120.53;;;4.91;100.00
83200;BME280;73092;49.132;8.920;2024-03-22T00:11:26;100112.69;;;4.84;100.00
83200;BME280;73092;49.132;8.920;2024-03-22T00:13:52;100112.69;;;4.84;100.00
83200;BME280;73092;49.132;8.920;2024-03-22T00:16:18;100107.47;;;4.80;100.00
83200;BME280;73092;49.132;8.920;2024-03-22T00:18:43;100102.22;;;4.75;100.00
83200;BME280;73092;49.132;8.920;2024-03-22T00:21:09;100098.72;;;4.70;100.00
83200;BME280;73092;49.132;8.920;2024-03-22T00:23:34;100091.72;;;4.63;100.00
83200;BME280;73092;49.132;8.920;2024-03-22T00:25:59;100077.81;;;4.55;100.00
83200;BME280;73092;49.132;8.920;2024-03-22T00:28:25;100078.66;;;4.52;100.00
83200;BME280;73092;49.132;8.920;2024-03-22T00:30:50;100073.41;;;4.46;100.00
83200;BME280;73092;49.132;8.920;2024-03-22T00:33:15;100084.69;;;4.47;100.00
83200;BME280;73092;49.132;8.920;2024-03-22T00:35:41;100075.13;;;4.39;100.00
83200;BME280;73092;49.132;8.920;2024-03-22T00:38:06;100082.03;;;4.37;100.00
83200;BME280;73092;49.132;8.920;2024-03-22T00:40:31;100082.03;;;4.36;100.00
83200;BME280;73092;49.132;8.920;2024-03-22T00:42:57;100089.78;;;4.31;100.00
83200;BME280;73092;49.132;8.920;2024-03-22T00:45:22;100088.03;;;4.27;100.00
83200;BME280;73092;49.132;8.920;2024-03-22T00:47:48;100064.56;;;4.21;100.00
83200;BME280;73092;49.132;8.920;2024-03-22T00:50:14;100067.16;;;4.18;100.00
83200;BME280;73092;49.132;8.920;2024-03-22T00:52:39;100061.94;;;4.15;100.00
83200;BME280;73092;49.132;8.920;2024-03-22T00:55:05;100063.63;;;4.08;100.00
83200;BME280;73092;49.132;8.920;2024-03-22T00:57:30;100056.63;;;4.03;100.00
83200;BME280;73092;49.132;8.920;2024-03-22T00:59:56;100059.22;;;3.98;100.00
83200;BME280;73092;49.132;8.920;2024-03-22T01:02:21;100056.56;;;3.93;100.00
83200;BME280;73092;49.132;8.920;2024-03-22T01:04:48;100046.13;;;3.90;100.00
83200;BME280;73092;49.132;8.920;2024-03-22T01:07:13;100043.53;;;3.90;100.00
83200;BME280;73092;49.132;8.920;2024-03-22T01:09:38;100051.34;;;3.90;100.00
83200;BME280;73092;49.132;8.920;2024-03-22T01:12:04;100040.00;;;3.85;100.00
83200;BME280;73092;49.132;8.920;2024-03-22T01:14:30;100041.72;;;3.80;100.00
83200;BME280;73092;49.132;8.920;2024-03-22T01:16:55;100038.22;;;3.74;100.00
83200;BME280;73092;49.132;8.920;2024-03-22T01:19:21;100035.59;;;3.75;100.00
83200;BME280;73092;49.132;8.920;2024-03-22T01:21:48;100030.38;;;3.72;100.00
83200;BME280;73092;49.132;8.920;2024-03-22T01:24:13;100032.13;;;3.70;100.00
83200;BME280;73092;49.132;8.920;2024-03-22T01:26:38;100019.97;;;3.69;100.00
83200;BME280;73092;49.132;8.920;2024-03-22T01:29:04;100020.81;;;3.68;100.00
83200;BME280;73092;49.132;8.920;2024-03-22T01:31:29;100020.78;;;3.66;100.00
83200;BME280;73092;49.132;8.920;2024-03-22T01:33:54;100009.50;;;3.63;100.00
83200;BME280;73092;49.132;8.920;2024-03-22T01:36:20;100011.25;;;3.61;100.00
83200;BME280;73092;49.132;8.920;2024-03-22T01:38:45;100013.88;;;3.64;100.00
83200;BME280;73092;49.132;8.920;2024-03-22T01:41:11;100012.06;;;3.60;100.00
83200;BME280;73092;49.132;8.920;2024-03-22T01:43:36;100012.09;;;3.58;100.00
83200;BME280;73092;49.132;8.920;2024-03-22T01:46:01;100012.91;;;3.56;100.00
83200;BME280;73092;49.132;8.920;2024-03-22T01:48:27;100012.06;;;3.55;100.00
83200;BME280;73092;49.132;8.920;2024-03-22T01:50:52;100011.19;;;3.55;100.00
83200;BME280;73092;49.132;8.920;2024-03-22T01:53:18;100007.75;;;3.59;100.00
83200;BME280;73092;49.132;8.920;2024-03-22T01:55:43;100015.53;;;3.59;100.00
83200;BME280;73092;49.132;8.920;2024-03-22T01:58:09;99999.06;;;3.57;100.00
83200;BME280;73092;49.132;8.920;2024-03-22T02:00:35;100005.94;;;3.48;100.00
83200;BME280;73092;49.132;8.920;2024-03-22T02:03:00;99986.84;;;3.46;100.00
83200;BME280;73092;49.132;8.920;2024-03-22T02:05:25;99986.81;;;3.42;100.00
83200;BME280;73092;49.132;8.920;2024-03-22T02:07:51;99992.00;;;3.43;100.00
83200;BME280;73092;49.132;8.920;2024-03-22T02:10:17;99986.78;;;3.40;100.00
83200;BME280;73092;49.132;8.920;2024-03-22T02:12:42;99985.03;;;3.36;100.00
83200;BME280;73092;49.132;8.920;2024-03-22T02:15:08;99979.78;;;3.32;100.00
83200;BME280;73092;49.132;8.920;2024-03-22T02:17:35;99982.31;;;3.25;100.00
83200;BME280;73092;49.132;8.920;2024-03-22T02:20:01;99984.06;;;3.23;100.00
83200;BME280;73092;49.132;8.920;2024-03-22T02:22:27;99983.16;;;3.20;100.00
83200;BME280;73092;49.132;8.920;2024-03-22T02:24:53;99990.19;;;3.30;100.00
83200;BME280;73092;49.132;8.920;2024-03-22T02:27:18;99982.38;;;3.32;100.00
83200;BME280;73092;49.132;8.920;2024-03-22T02:29:43;99991.97;;;3.37;100.00
83200;BME280;73092;49.132;8.920;2024-03-22T02:32:09;99981.59;;;3.40;100.00
83200;BME280;73092;49.132;8.920;2024-03-22T02:34:34;99974.66;;;3.39;100.00
83200;BME280;73092;49.132;8.920;2024-03-22T02:37:00;99974.63;;;3.36;100.00
83200;BME280;73092;49.132;8.920;2024-03-22T02:39:25;99969.53;;;3.45;100.00
83200;BME280;73092;49.132;8.920;2024-03-22T02:41:51;99963.44;;;3.46;100.00
83200;BME280;73092;49.132;8.920;2024-03-22T02:44:16;99966.91;;;3.47;100.00
83200;BME280;73092;49.132;8.920;2024-03-22T02:46:41;99969.56;;;3.52;100.00
83200;BME280;73092;49.132;8.920;2024-03-22T02:49:07;99971.31;;;3.56;100.00
83200;BME280;73092;49.132;8.920;2024-03-22T02:51:32;99962.69;;;3.60;100.00
83200;BME280;73092;49.132;8.920;2024-03-22T02:53:57;99960.97;;;3.63;100.00
83200;BME280;73092;49.132;8.920;2024-03-22T02:56:23;99963.63;;;3.68;100.00
83200;BME280;73092;49.132;8.920;2024-03-22T02:58:51;99969.72;;;3.70;100.00
83200;BME280;73092;49.132;8.920;2024-03-22T03:01:16;99964.53;;;3.70;100.00
83200;BME280;73092;49.132;8.920;2024-03-22T03:03:43;99959.31;;;3.70;100.00
83200;BME280;73092;49.132;8.920;2024-03-22T03:06:08;99963.63;;;3.69;100.00
83200;BME280;73092;49.132;8.920;2024-03-22T03:08:34;99961.03;;;3.68;100.00
83200;BME280;73092;49.132;8.920;2024-03-22T03:11:00;99958.38;;;3.63;100.00
83200;BME280;73092;49.132;8.920;2024-03-22T03:13:25;99957.47;;;3.57;100.00
83200;BME280;73092;49.132;8.920;2024-03-22T03:15:51;99961.84;;;3.62;100.00
83200;BME280;73092;49.132;8.920;2024-03-22T03:18:16;99952.25;;;3.57;100.00
83200;BME280;73092;49.132;8.920;2024-03-22T03:20:42;99948.81;;;3.55;100.00
83200;BME280;73092;49.132;8.920;2024-03-22T03:23:07;99950.56;;;3.63;100.00
83200;BME280;73092;49.132;8.920;2024-03-22T03:25:33;99946.25;;;3.62;100.00
83200;BME280;73092;49.132;8.920;2024-03-22T03:27:58;99951.47;;;3.64;100.00
83200;BME280;73092;49.132;8.920;2024-03-22T03:30:24;99947.09;;;3.63;100.00
83200;BME280;73092;49.132;8.920;2024-03-22T03:32:49;99952.34;;;3.66;100.00
83200;BME280;73092;49.132;8.920;2024-03-22T03:35:14;99944.56;;;3.69;100.00
83200;BME280;73092;49.132;8.920;2024-03-22T03:37:40;99943.72;;;3.70;100.00
83200;BME280;73092;49.132;8.920;2024-03-22T03:40:06;99951.56;;;3.78;100.00
83200;BME280;73092;49.132;8.920;2024-03-22T03:42:32;99946.38;;;3.79;100.00
83200;BME280;73092;49.132;8.920;2024-03-22T03:44:57;99943.78;;;3.85;100.00
83200;BME280;73092;49.132;8.920;2024-03-22T03:47:22;99938.63;;;3.91;100.00
83200;BME280;73092;49.132;8.920;2024-03-22T03:49:48;99933.47;;;3.98;100.00
83200;BME280;73092;49.132;8.920;2024-03-22T03:52:13;99923.19;;;4.22;100.00
83200;BME280;73092;49.132;8.920;2024-03-22T03:54:39;99929.28;;;4.30;100.00
83200;BME280;73092;49.132;8.920;2024-03-22T03:57:04;99929.31;;;4.36;100.00
83200;BME280;73092;49.132;8.920;2024-03-22T03:59:30;99928.44;;;4.34;100.00
83200;BME280;73092;49.132;8.920;2024-03-22T04:01:55;99931.91;;;4.33;100.00
83200;BME280;73092;49.132;8.920;2024-03-22T04:04:20;99932.78;;;4.34;100.00
83200;BME280;73092;49.132;8.920;2024-03-22T04:06:46;99924.94;;;4.32;100.00
83200;BME280;73092;49.132;8.920;2024-03-22T04:09:11;99932.78;;;4.37;100.00
83200;BME280;73092;49.132;8.920;2024-03-22T04:11:37;99940.59;;;4.38;100.00
83200;BME280;73092;49.132;8.920;2024-03-22T04:14:03;99945.81;;;4.38;100.00
83200;BME280;73092;49.132;8.920;2024-03-22T04:16:28;99937.13;;;4.36;100.00
83200;BME280;73092;49.132;8.920;2024-03-22T04:18:53;99942.38;;;4.46;100.00
83200;BME280;73092;49.132;8.920;2024-03-22T04:21:19;99939.75;;;4.44;100.00
83200;BME280;73092;49.132;8.920;2024-03-22T04:23:44;99940.63;;;4.45;100.00
83200;BME280;73092;49.132;8.920;2024-03-22T04:26:10;99938.81;;;4.28;100.00
83200;BME280;73092;49.132;8.920;2024-03-22T04:28:35;99933.56;;;4.19;100.00
83200;BME280;73092;49.132;8.920;2024-03-22T04:31:02;99932.69;;;4.14;100.00
83200;BME280;73092;49.132;8.920;2024-03-22T04:33:29;99941.34;;;4.11;100.00
83200;BME280;73092;49.132;8.920;2024-03-22T04:35:55;99950.94;;;4.17;100.00
83200;BME280;73092;49.132;8.920;2024-03-22T04:38:24;99945.72;;;4.14;100.00
83200;BME280;73092;49.132;8.920;2024-03-22T04:40:51;99943.09;;;4.15;100.00
83200;BME280;73092;49.132;8.920;2024-03-22T04:43:17;99938.78;;;4.22;100.00
83200;BME280;73092;49.132;8.920;2024-03-22T04:45:43;99938.84;;;4.27;100.00
83200;BME280;73092;49.132;8.920;2024-03-22T04:48:09;99935.38;;;4.26;100.00
83200;BME280;73092;49.132;8.920;2024-03-22T04:50:35;99928.44;;;4.37;100.00
83200;BME280;73092;49.132;8.920;2024-03-22T04:53:01;99926.72;;;4.36;100.00
83200;BME280;73092;49.132;8.920;2024-03-22T04:55:26;99921.47;;;4.32;100.00
83200;BME280;73092;49.132;8.920;2024-03-22T04:57:52;99931.94;;;4.36;100.00
83200;BME280;73092;49.132;8.920;2024-03-22T05:00:18;99930.16;;;4.35;100.00
83200;BME280;73092;49.132;8.920;2024-03-22T05:02:44;99930.16;;;4.35;100.00
83200;BME280;73092;49.132;8.920;2024-03-22T05:05:09;99928.47;;;4.40;100.00
83200;BME280;73092;49.132;8.920;2024-03-22T05:07:35;99925.00;;;4.45;100.00
83200;BME280;73092;49.132;8.920;2024-03-22T05:10:00;99929.38;;;4.49;100.00
83200;BME280;73092;49.132;8.920;2024-03-22T05:12:26;99920.72;;;4.59;100.00
83200;BME280;73092;49.132;8.920;2024-03-22T05:14:51;99928.53;;;4.59;100.00
83200;BME280;73092;49.132;8.920;2024-03-22T05:17:17;99911.19;;;4.64;100.00
83200;BME280;73092;49.132;8.920;2024-03-22T05:19:42;99902.47;;;4.53;100.00
83200;BME280;73092;49.132;8.920;2024-03-22T05:22:08;99903.31;;;4.47;100.00
83200;BME280;73092;49.132;8.920;2024-03-22T05:24:33;99906.81;;;4.55;100.00
83200;BME280;73092;49.132;8.920;2024-03-22T05:26:58;99904.19;;;4.51;100.00
83200;BME280;73092;49.132;8.920;2024-03-22T05:29:25;99898.97;;;4.51;100.00
83200;BME280;73092;49.132;8.920;2024-03-22T05:31:50;99887.72;;;4.49;100.00
83200;BME280;73092;49.132;8.920;2024-03-22T05:34:19;99892.03;;;4.44;100.00
83200;BME280;73092;49.132;8.920;2024-03-22T05:36:45;99890.31;;;4.43;100.00
83200;BME280;73092;49.132;8.920;2024-03-22T05:39:11;99885.09;;;4.43;100.00
83200;BME280;73092;49.132;8.920;2024-03-22T05:41:37;99888.53;;;4.38;100.00
83200;BME280;73092;49.132;8.920;2024-03-22T05:44:03;99891.13;;;4.38;100.00
83200;BME280;73092;49.132;8.920;2024-03-22T05:46:29;99890.28;;;4.39;100.00
83200;BME280;73092;49.132;8.920;2024-03-22T05:48:55;99890.28;;;4.39;100.00
83200;BME280;73092;49.132;8.920;2024-03-22T05:51:20;99890.31;;;4.43;100.00
83200;BME280;73092;49.132;8.920;2024-03-22T05:53:46;99888.56;;;4.45;100.00
83200;BME280;73092;49.132;8.920;2024-03-22T05:56:11;99889.47;;;4.48;100.00
83200;BME280;73092;49.132;8.920;2024-03-22T05:58:37;99888.56;;;4.51;100.00
83200;BME280;73092;49.132;8.920;2024-03-22T06:01:02;99890.34;;;4.55;100.00
83200;BME280;73092;49.132;8.920;2024-03-22T06:03:28;99886.00;;;4.60;100.00
83200;BME280;73092;49.132;8.920;2024-03-22T06:05:54;99888.59;;;4.63;100.00
83200;BME280;73092;49.132;8.920;2024-03-22T06:08:22;99888.63;;;4.72;100.00
83200;BME280;73092;49.132;8.920;2024-03-22T06:10:48;99883.44;;;4.87;100.00
83200;BME280;73092;49.132;8.920;2024-03-22T06:13:13;99889.53;;;4.96;100.00
83200;BME280;73092;49.132;8.920;2024-03-22T06:15:41;99890.41;;;5.01;100.00
83200;BME280;73092;49.132;8.920;2024-03-22T06:18:09;99886.94;;;5.17;100.00
83200;BME280;73092;49.132;8.920;2024-03-22T06:20:35;99890.41;;;5.19;100.00
83200;BME280;73092;49.132;8.920;2024-03-22T06:23:00;99892.13;;;5.26;100.00
83200;BME280;73092;49.132;8.920;2024-03-22T06:25:26;99890.41;;;5.38;100.00
83200;BME280;73092;49.132;8.920;2024-03-22T06:27:57;99883.44;;;5.52;100.00
83200;BME280;73092;49.132;8.920;2024-03-22T06:30:23;99881.66;;;5.72;100.00
83200;BME280;73092;49.132;8.920;2024-03-22T06:32:54;99881.63;;;5.88;99.46
83200;BME280;73092;49.132;8.920;2024-03-22T06:35:25;99876.41;;;6.00;98.32
83200;BME280;73092;49.132;8.920;2024-03-22T06:37:51;99873.72;;;6.15;97.88
83200;BME280;73092;49.132;8.920;2024-03-22T06:40:18;99869.25;;;6.42;96.63
83200;BME280;73092;49.132;8.920;2024-03-22T06:42:43;99867.41;;;6.59;95.36
83200;BME280;73092;49.132;8.920;2024-03-22T06:45:09;99869.03;;;6.80;94.42
83200;BME280;73092;49.132;8.920;2024-03-22T06:47:34;99873.19;;;7.09;92.85
83200;BME280;73092;49.132;8.920;2024-03-22T06:50:00;99869.53;;;7.28;90.58
83200;BME280;73092;49.132;8.920;2024-03-22T06:52:28;99870.19;;;7.50;89.13
83200;BME280;73092;49.132;8.920;2024-03-22T06:54:53;99861.28;;;7.71;88.90
83200;BME280;73092;49.132;8.920;2024-03-22T06:57:18;99855.91;;;7.83;87.53
83200;BME280;73092;49.132;8.920;2024-03-22T06:59:44;99861.00;;;7.94;88.17
83200;BME280;73092;49.132;8.920;2024-03-22T07:02:09;99859.41;;;8.53;86.78
83200;BME280;73092;49.132;8.920;2024-03-22T07:04:35;99853.06;;;9.75;82.34
83200;BME280;73092;49.132;8.920;2024-03-22T07:07:00;99855.06;;;10.86;76.90
83200;BME280;73092;49.132;8.920;2024-03-22T07:09:26;99857.44;;;11.67;72.55
83200;BME280;73092;49.132;8.920;2024-03-22T07:11:53;99862.50;;;12.39;69.61
83200;BME280;73092;49.132;8.920;2024-03-22T07:14:23;99857.72;;;12.80;67.96
83200;BME280;73092;49.132;8.920;2024-03-22T07:16:51;99862.78;;;13.14;66.53
83200;BME280;73092;49.132;8.920;2024-03-22T07:19:19;99870.63;;;13.43;65.33
83200;BME280;73092;49.132;8.920;2024-03-22T07:21:44;99869.25;;;13.83;64.09
83200;BME280;73092;49.132;8.920;2024-03-22T07:24:10;99863.75;;;13.11;66.31
83200;BME280;73092;49.132;8.920;2024-03-22T07:26:38;99851.03;;;12.40;68.75
83200;BME280;73092;49.132;8.920;2024-03-22T07:29:03;99843.13;;;11.77;71.04
83200;BME280;73092;49.132;8.920;2024-03-22T07:31:29;99852.25;;;11.31;74.00
83200;BME280;73092;49.132;8.920;2024-03-22T07:33:54;99856.59;;;10.97;74.54
83200;BME280;73092;49.132;8.920;2024-03-22T07:36:20;99854.50;;;10.35;76.83
83200;BME280;73092;49.132;8.920;2024-03-22T07:38:46;99843.59;;;10.10;77.16
83200;BME280;73092;49.132;8.920;2024-03-22T07:41:11;99840.56;;;9.86;78.58
83200;BME280;73092;49.132;8.920;2024-03-22T07:43:37;99838.09;;;9.77;79.60
83200;BME280;73092;49.132;8.920;2024-03-22T07:46:02;99841.25;;;9.96;79.69
83200;BME280;73092;49.132;8.920;2024-03-22T07:48:28;99843.97;;;9.91;79.00
83200;BME280;73092;49.132;8.920;2024-03-22T07:51:11;99836.41;;;10.18;78.72
83200;BME280;73092;49.132;8.920;2024-03-22T07:53:37;99832.63;;;10.34;77.69
83200;BME280;73092;49.132;8.920;2024-03-22T07:56:02;99831.38;;;10.51;79.00
83200;BME280;73092;49.132;8.920;2024-03-22T07:58:27;99831.75;;;10.71;78.52
83200;BME280;73092;49.132;8.920;2024-03-22T08:00:54;99836.81;;;10.80;78.89
83200;BME280;73092;49.132;8.920;2024-03-22T08:03:19;99826.00;;;10.93;78.21
83200;BME280;73092;49.132;8.920;2024-03-22T08:05:44;99823.94;;;11.05;77.60
83200;BME280;73092;49.132;8.920;2024-03-22T08:08:10;99813.31;;;11.10;77.23
83200;BME280;73092;49.132;8.920;2024-03-22T08:10:35;99814.56;;;11.29;77.52
83200;BME280;73092;49.132;8.920;2024-03-22T08:13:01;99801.88;;;11.44;76.98
83200;BME280;73092;49.132;8.920;2024-03-22T08:15:26;99804.06;;;11.61;76.61
83200;BME280;73092;49.132;8.920;2024-03-22T08:17:55;99799.03;;;11.86;76.37
83200;BME280;73092;49.132;8.920;2024-03-22T08:20:23;99799.38;;;12.03;76.31
83200;BME280;73092;49.132;8.920;2024-03-22T08:22:48;99805.69;;;12.29;75.41
83200;BME280;73092;49.132;8.920;2024-03-22T08:25:13;99803.34;;;12.47;75.78
83200;BME280;73092;49.132;8.920;2024-03-22T08:27:46;99799.88;;;12.73;77.14
83200;BME280;73092;49.132;8.920;2024-03-22T08:30:12;99798.34;;;12.93;75.94
83200;BME280;73092;49.132;8.920;2024-03-22T08:32:38;99806.53;;;13.12;75.89
83200;BME280;73092;49.132;8.920;2024-03-22T08:35:03;99797.59;;;13.16;75.28
83200;BME280;73092;49.132;8.920;2024-03-22T08:37:33;99789.25;;;13.30;75.36
83200;BME280;73092;49.132;8.920;2024-03-22T08:39:59;99789.03;;;13.36;74.01
83200;BME280;73092;49.132;8.920;2024-03-22T08:42:24;99788.50;;;13.51;73.31
83200;BME280;73092;49.132;8.920;2024-03-22T08:44:49;99784.38;;;13.68;73.18
83200;BME280;73092;49.132;8.920;2024-03-22T08:47:15;99788.47;;;13.76;70.91
83200;BME280;73092;49.132;8.920;2024-03-22T08:49:40;99782.56;;;13.93;72.55
83200;BME280;73092;49.132;8.920;2024-03-22T08:52:07;99781.75;;;13.91;70.40
83200;BME280;73092;49.132;8.920;2024-03-22T08:54:32;99777.41;;;14.14;70.27
83200;BME280;73092;49.132;8.920;2024-03-22T08:56:57;99786.88;;;14.41;68.74
83200;BME280;73092;49.132;8.920;2024-03-22T08:59:23;99778.69;;;14.71;68.12
83200;BME280;73092;49.132;8.920;2024-03-22T09:01:49;99784.59;;;14.99;67.72
83200;BME280;73092;49.132;8.920;2024-03-22T09:04:15;99785.13;;;15.28;66.64
83200;BME280;73092;49.132;8.920;2024-03-22T09:06:40;99785.00;;;15.31;66.45
83200;BME280;73092;49.132;8.920;2024-03-22T09:09:06;99777.59;;;15.39;66.12
83200;BME280;73092;49.132;8.920;2024-03-22T09:11:31;99775.06;;;15.57;61.65
83200;BME280;73092;49.132;8.920;2024-03-22T09:13:57;99765.53;;;15.73;66.01
83200;BME280;73092;49.132;8.920;2024-03-22T09:16:23;99773.88;;;15.84;64.79
83200;BME280;73092;49.132;8.920;2024-03-22T09:18:49;99768.50;;;15.65;63.64
83200;BME280;73092;49.132;8.920;2024-03-22T09:21:14;99765.41;;;15.95;65.25
83200;BME280;73092;49.132;8.920;2024-03-22T09:23:40;99765.44;;;16.14;64.61
83200;BME280;73092;49.132;8.920;2024-03-22T09:26:05;99758.69;;;16.26;63.26
83200;BME280;73092;49.132;8.920;2024-03-22T09:28:31;99763.50;;;16.36;63.84
83200;BME280;73092;49.132;8.920;2024-03-22T09:30:56;99754.22;;;16.45;63.41
83200;BME280;73092;49.132;8.920;2024-03-22T09:33:22;99753.88;;;16.34;62.39
83200;BME280;73092;49.132;8.920;2024-03-22T09:35:47;99743.28;;;16.34;63.69
83200;BME280;73092;49.132;8.920;2024-03-22T09:38:12;99736.59;;;16.25;63.56
83200;BME280;73092;49.132;8.920;2024-03-22T09:40:38;99740.97;;;16.26;63.53
83200;BME280;73092;49.132;8.920;2024-03-22T09:43:06;99727.56;;;16.29;63.56
83200;BME280;73092;49.132;8.920;2024-03-22T09:45:32;99728.94;;;16.19;63.79
83200;BME280;73092;49.132;8.920;2024-03-22T09:47:58;99724.19;;;16.07;64.49
83200;BME280;73092;49.132;8.920;2024-03-22T09:50:24;99721.97;;;15.98;64.50
83200;BME280;73092;49.132;8.920;2024-03-22T09:52:52;99712.44;;;15.93;63.05
83200;BME280;73092;49.132;8.920;2024-03-22T09:55:22;99709.16;;;15.88;64.52
83200;BME280;73092;49.132;8.920;2024-03-22T09:57:49;99706.22;;;15.94;63.38
83200;BME280;73092;49.132;8.920;2024-03-22T10:00:15;99704.50;;;16.12;62.80
83200;BME280;73092;49.132;8.920;2024-03-22T10:02:41;99699.59;;;16.22;63.54
83200;BME280;73092;49.132;8.920;2024-03-22T10:05:07;99705.63;;;16.26;62.75
83200;BME280;73092;49.132;8.920;2024-03-22T10:07:33;99698.88;;;16.37;62.69
83200;BME280;73092;49.132;8.920;2024-03-22T10:09:59;99698.44;;;16.28;62.54
83200;BME280;73092;49.132;8.920;2024-03-22T10:12:24;99690.94;;;16.55;62.80
83200;BME280;73092;49.132;8.920;2024-03-22T10:14:53;99687.75;;;16.65;61.95
83200;BME280;73092;49.132;8.920;2024-03-22T10:17:18;99690.94;;;16.72;61.48
83200;BME280;73092;49.132;8.920;2024-03-22T10:19:44;99694.41;;;16.74;59.84
83200;BME280;73092;49.132;8.920;2024-03-22T10:22:09;99696.16;;;16.93;59.60
83200;BME280;73092;49.132;8.920;2024-03-22T10:24:34;99688.94;;;16.95;59.79
83200;BME280;73092;49.132;8.920;2024-03-22T10:27:00;99688.00;;;17.13;59.02
83200;BME280;73092;49.132;8.920;2024-03-22T10:29:25;99679.22;;;17.28;58.62
83200;BME280;73092;49.132;8.920;2024-03-22T10:31:52;99680.78;;;17.32;58.61
83200;BME280;73092;49.132;8.920;2024-03-22T10:34:20;99672.97;;;17.29;58.05
83200;BME280;73092;49.132;8.920;2024-03-22T10:36:46;99670.78;;;17.38;59.11
83200;BME280;73092;49.132;8.920;2024-03-22T10:39:15;99670.03;;;17.51;59.60
83200;BME280;73092;49.132;8.920;2024-03-22T10:41:40;99676.66;;;17.60;58.25
83200;BME280;73092;49.132;8.920;2024-03-22T10:44:06;99667.53;;;17.48;57.99
83200;BME280;73092;49.132;8.920;2024-03-22T10:46:34;99657.78;;;17.49;57.61
83200;BME280;73092;49.132;8.920;2024-03-22T10:49:02;99654.84;;;17.53;51.94
83200;BME280;73092;49.132;8.920;2024-03-22T10:51:30;99654.00;;;17.53;55.63
83200;BME280;73092;49.132;8.920;2024-03-22T10:53:56;99653.06;;;17.54;56.04
83200;BME280;73092;49.132;8.920;2024-03-22T10:56:23;99651.97;;;17.58;56.14
83200;BME280;73092;49.132;8.920;2024-03-22T10:58:49;99648.84;;;17.50;50.12
83200;BME280;73092;49.132;8.920;2024-03-22T11:01:26;99636.88;;;17.58;53.95
83200;BME280;73092;49.132;8.920;2024-03-22T11:04:02;99638.22;;;17.50;58.41
83200;BME280;73092;49.132;8.920;2024-03-22T11:06:28;99641.50;;;17.55;56.78
83200;BME280;73092;49.132;8.920;2024-03-22T11:08:54;99632.78;;;17.35;57.01
83200;BME280;73092;49.132;8.920;2024-03-22T11:11:19;99630.16;;;17.51;56.63
83200;BME280;73092;49.132;8.920;2024-03-22T11:13:47;99620.56;;;17.49;57.92
83200;BME280;73092;49.132;8.920;2024-03-22T11:16:14;99631.53;;;17.43;55.82
83200;BME280;73092;49.132;8.920;2024-03-22T11:18:39;99618.94;;;17.13;56.70
83200;BME280;73092;49.132;8.920;2024-03-22T11:21:04;99614.09;;;17.04;57.53
83200;BME280;73092;49.132;8.920;2024-03-22T11:23:32;99607.66;;;17.25;56.24
83200;BME280;73092;49.132;8.920;2024-03-22T11:25:58;99604.53;;;17.17;54.65
83200;BME280;73092;49.132;8.920;2024-03-22T11:28:24;99597.47;;;17.33;54.97
83200;BME280;73092;49.132;8.920;2024-03-22T11:30:49;99591.19;;;17.34;55.10
83200;BME280;73092;49.132;8.920;2024-03-22T11:33:15;99583.31;;;17.33;54.99
83200;BME280;73092;49.132;8.920;2024-03-22T11:35:40;99577.13;;;17.48;55.06
83200;BME280;73092;49.132;8.920;2024-03-22T11:38:06;99579.22;;;17.43;55.48
83200;BME280;73092;49.132;8.920;2024-03-22T11:40:32;99577.06;;;17.34;54.83
83200;BME280;73092;49.132;8.920;2024-03-22T11:42:59;99568.59;;;17.10;55.54
83200;BME280;73092;49.132;8.920;2024-03-22T11:45:26;99557.50;;;16.86;56.14
83200;BME280;73092;49.132;8.920;2024-03-22T11:47:52;99558.72;;;16.96;56.29
83200;BME280;73092;49.132;8.920;2024-03-22T11:50:18;99549.50;;;17.19;55.73
83200;BME280;73092;49.132;8.920;2024-03-22T11:52:45;99543.03;;;17.41;55.43
83200;BME280;73092;49.132;8.920;2024-03-22T11:55:14;99542.69;;;17.47;55.99
83200;BME280;73092;49.132;8.920;2024-03-22T11:57:40;99540.63;;;17.52;55.27
83200;BME280;73092;49.132;8.920;2024-03-22T12:00:06;99537.97;;;17.52;56.00
83200;BME280;73092;49.132;8.920;2024-03-22T12:02:35;99530.19;;;17.49;56.05
83200;BME280;73092;49.132;8.920;2024-03-22T12:05:01;99526.06;;;17.43;56.53
83200;BME280;73092;49.132;8.920;2024-03-22T12:07:27;99522.38;;;17.46;56.72
83200;BME280;73092;49.132;8.920;2024-03-22T12:09:52;99529.63;;;17.42;55.71
83200;BME280;73092;49.132;8.920;2024-03-22T12:12:17;99519.53;;;17.49;55.38
83200;BME280;73092;49.132;8.920;2024-03-22T12:14:46;99514.06;;;17.52;54.93
83200;BME280;73092;49.132;8.920;2024-03-22T12:17:11;99513.34;;;17.48;54.46
83200;BME280;73092;49.132;8.920;2024-03-22T12:19:37;99500.31;;;17.44;54.22
83200;BME280;73092;49.132;8.920;2024-03-22T12:22:02;99502.72;;;17.32;54.25
83200;BME280;73092;49.132;8.920;2024-03-22T12:24:28;99499.81;;;17.21;53.29
83200;BME280;73092;49.132;8.920;2024-03-22T12:26:53;99489.84;;;17.09;54.06
83200;BME280;73092;49.132;8.920;2024-03-22T12:29:19;99491.91;;;17.20;53.97
83200;BME280;73092;49.132;8.920;2024-03-22T12:31:44;99483.75;;;17.39;54.51
83200;BME280;73092;49.132;8.920;2024-03-22T12:34:10;99472.88;;;17.43;53.58
83200;BME280;73092;49.132;8.920;2024-03-22T12:36:36;99474.25;;;17.34;56.19
83200;BME280;73092;49.132;8.920;2024-03-22T12:39:01;99462.44;;;17.24;55.40
83200;BME280;73092;49.132;8.920;2024-03-22T12:41:28;99466.72;;;17.27;55.26
83200;BME280;73092;49.132;8.920;2024-03-22T12:43:58;99475.13;;;17.19;52.31
83200;BME280;73092;49.132;8.920;2024-03-22T12:46:24;99458.63;;;17.60;54.57
83200;BME280;73092;49.132;8.920;2024-03-22T12:48:50;99471.84;;;17.77;53.01
83200;BME280;73092;49.132;8.920;2024-03-22T12:51:15;99472.16;;;17.71;51.67
83200;BME280;73092;49.132;8.920;2024-03-22T12:53:41;99473.28;;;17.67;52.59